Goleniow, Poland
Current Conditions -  °F | °C
As of 5:30 AM on Sunday 25 Jan 2015 (Local Time) from EPSC Reporting Station
Moderate Fog Moderate Fog  
Wind Chill: 32°   Ceiling: 100
Heat Index: 32°   Visibility: 0.25mi
Dew Point: 30°   Wind: 0mph
Humidity: 93%   Direction: NA
Pressure: 30.09"   Gusts: NA
Location:  53.57°N, 14.82°E
Report Text: EPSC 250330Z 00000KT 0400 R31/0900 FZFG VV001 M00/M01 Q1019
Loading
Personal Weather Stations






























Interactive Weather Map New forecast layout! Learn more

10-Day Weather Forecast

Advertisements
Track Severe Weather on mobile